North Chatham, Massachusetts
Current Conditions -  °F | °C
As of 9:52 AM on Monday 22 Dec 2014 (Local Time) from KCQX Reporting Station
Overcast Overcast  
Wind Chill: 40°   Ceiling: 3500
Heat Index: 45°   Visibility: 10mi
Dew Point: 39°   Wind: 9mph
Humidity: 80%   Direction: 90°E
Pressure: 30.37"   Gusts: NA
Location:  41.7°N, 69.95°W
Report Text: KCQX 221452Z AUTO 09008KT 10SM FEW019 BKN035 OVC050 07/04 A3037 RMK AO2 SLP287 60000 T00720039 52003
Loading
Personal Weather Stations






























Interactive Weather Map New forecast layout! Learn more

10-Day Weather Forecast

Advertisements
Track Severe Weather on mobile